Time;durP1;ratioP1;P1;durP2;ratioP2;P2;SDS_P1;SDS_P2;PMS_P1;PMS_P2;Temp;Humidity;BMP_temperature;BMP_pressure;BME280_temperature;BME280_humidity;BME280_pressure;Samples;Min_cycle;Max_cycle;Signal;HPM_P1;HPM_P2
2024/02/11 00:00:41;;;;;;;17.13;9.82;;;;;;;;;;6075683;23;20431;-77
2024/02/11 00:03:07;;;;;;;16.70;9.85;;;;;;;;;;6075449;23;20459;-76
2024/02/11 00:05:33;;;;;;;26.13;10.70;;;;;;;;;;6099284;23;20010;-75
2024/02/11 00:07:59;;;;;;;25.55;10.80;;;;;;;;;;6099680;23;20062;-75
2024/02/11 00:10:28;;;;;;;26.05;11.13;;;;;;;;;;6099435;23;20010;-75
2024/02/11 00:13:06;;;;;;;20.83;9.95;;;;;;;;;;6102355;23;20013;-73
2024/02/11 00:15:32;;;;;;;18.35;9.52;;;;;;;;;;6100624;23;20070;-75
2024/02/11 00:17:59;;;;;;;16.98;10.85;;;;;;;;;;6099420;23;20336;-74
2024/02/11 00:20:28;;;;;;;20.48;10.27;;;;;;;;;;6100112;23;20359;-72
2024/02/11 00:22:56;;;;;;;20.50;10.57;;;;;;;;;;6101364;23;20002;-75
2024/02/11 00:25:26;;;;;;;23.00;10.43;;;;;;;;;;6100246;23;20017;-75
2024/02/11 00:27:58;;;;;;;22.25;10.43;;;;;;;;;;6053189;23;20475;-75
2024/02/11 00:30:28;;;;;;;24.42;10.23;;;;;;;;;;6100583;23;20160;-73
2024/02/11 00:32:57;;;;;;;24.42;11.25;;;;;;;;;;6100015;23;20435;-74
2024/02/11 00:35:29;;;;;;;23.27;10.15;;;;;;;;;;6100085;23;20454;-76
2024/02/11 00:37:56;;;;;;;;;;;;;;;;;;6099480;23;20478;-76
2024/02/11 00:40:24;;;;;;;20.55;10.40;;;;;;;;;;6099491;23;19905;-76
2024/02/11 00:42:51;;;;;;;23.45;10.95;;;;;;;;;;6076511;23;20428;-74
2024/02/11 00:45:18;;;;;;;21.52;10.60;;;;;;;;;;6102030;23;20014;-74
2024/02/11 00:47:47;;;;;;;20.63;9.07;;;;;;;;;;6099837;23;20006;-73
2024/02/11 00:50:16;;;;;;;23.15;11.13;;;;;;;;;;6101494;23;20030;-75
2024/02/11 00:52:44;;;;;;;16.20;9.70;;;;;;;;;;6078224;23;20006;-74
2024/02/11 00:55:22;;;;;;;20.90;11.95;;;;;;;;;;6077254;23;20609;-75
2024/02/11 00:57:49;;;;;;;18.15;10.38;;;;;;;;;;6078101;23;20254;-75
2024/02/11 01:00:17;;;;;;;20.02;10.60;;;;;;;;;;6078016;23;20018;-75
2024/02/11 01:02:48;;;;;;;19.88;10.77;;;;;;;;;;6054458;23;20010;-74
2024/02/11 01:05:16;;;;;;;21.13;9.98;;;;;;;;;;6077014;23;20073;-76
2024/02/11 01:07:42;;;;;;;21.10;10.07;;;;;;;;;;6076344;23;20013;-75
2024/02/11 01:10:13;;;;;;;18.40;10.52;;;;;;;;;;6102577;23;20424;-75
2024/02/11 01:12:44;;;;;;;18.80;10.35;;;;;;;;;;6052831;23;20070;-74
2024/02/11 01:15:12;;;;;;;18.80;10.57;;;;;;;;;;6053391;23;20133;-74
2024/02/11 01:17:43;;;;;;;20.33;9.98;;;;;;;;;;6076727;23;20038;-75
2024/02/11 01:20:16;;;;;;;18.52;10.35;;;;;;;;;;6077123;23;20030;-74
2024/02/11 01:22:43;;;;;;;19.80;11.07;;;;;;;;;;6054811;23;20010;-74
2024/02/11 01:25:19;;;;;;;22.88;11.10;;;;;;;;;;6103254;23;20054;-74
2024/02/11 01:27:51;;;;;;;22.50;10.60;;;;;;;;;;6056049;23;20089;-75
2024/02/11 01:30:19;;;;;;;21.70;9.75;;;;;;;;;;6101770;23;20034;-72
2024/02/11 01:32:47;;;;;;;17.77;9.63;;;;;;;;;;6101646;23;20042;-73
2024/02/11 01:35:15;;;;;;;19.70;10.10;;;;;;;;;;6078171;23;20065;-76
2024/02/11 01:37:45;;;;;;;23.67;9.77;;;;;;;;;;6053944;23;20021;-73
2024/02/11 01:40:17;;;;;;;22.08;11.65;;;;;;;;;;6077335;23;20006;-74
2024/02/11 01:42:47;;;;;;;19.73;9.98;;;;;;;;;;6104369;23;20085;-74
2024/02/11 01:45:20;;;;;;;24.48;10.05;;;;;;;;;;6030574;23;20041;-75
2024/02/11 01:47:46;;;;;;;20.70;9.60;;;;;;;;;;6054336;23;20013;-74
2024/02/11 01:50:20;;;;;;;17.35;9.80;;;;;;;;;;6101865;23;20023;-74
2024/02/11 01:52:48;;;;;;;21.63;10.05;;;;;;;;;;6055314;23;20066;-75
2024/02/11 01:55:18;;;;;;;19.50;10.00;;;;;;;;;;6079540;23;20045;-73
2024/02/11 01:57:45;;;;;;;24.13;12.68;;;;;;;;;;6054345;23;20343;-73
2024/02/11 02:00:15;;;;;;;22.63;10.82;;;;;;;;;;6103319;23;19995;-75
2024/02/11 02:02:43;;;;;;;17.10;9.77;;;;;;;;;;6052781;23;20038;-74
2024/02/11 02:05:10;;;;;;;18.42;10.27;;;;;;;;;;6101638;23;20420;-74
2024/02/11 02:07:41;;;;;;;22.90;11.35;;;;;;;;;;6074687;23;20006;-74
2024/02/11 02:10:10;;;;;;;25.90;13.10;;;;;;;;;;6046277;23;20021;-76
2024/02/11 02:12:42;;;;;;;22.90;11.02;;;;;;;;;;6104708;23;20003;-72
2024/02/11 02:15:09;;;;;;;23.17;11.02;;;;;;;;;;6080277;23;20006;-73
2024/02/11 02:17:37;;;;;;;22.90;10.68;;;;;;;;;;6056004;23;20018;-72
2024/02/11 02:20:10;;;;;;;20.42;10.50;;;;;;;;;;6102439;23;20003;-73
2024/02/11 02:22:38;;;;;;;20.45;10.18;;;;;;;;;;6102304;23;20006;-74
2024/02/11 02:25:10;;;;;;;28.70;11.55;;;;;;;;;;6103432;23;20427;-75
2024/02/11 02:27:41;;;;;;;23.92;12.30;;;;;;;;;;6100768;23;20038;-74
2024/02/11 02:30:09;;;;;;;20.02;10.57;;;;;;;;;;6077450;23;20011;-73
2024/02/11 02:32:35;;;;;;;21.95;10.98;;;;;;;;;;6080029;23;20010;-73
2024/02/11 02:35:04;;;;;;;25.05;12.23;;;;;;;;;;6080492;23;20090;-71
2024/02/11 02:37:31;;;;;;;27.38;11.45;;;;;;;;;;6105393;23;20012;-74
2024/02/11 02:39:57;;;;;;;21.73;10.27;;;;;;;;;;6103456;23;20074;-74
2024/02/11 02:42:24;;;;;;;21.83;11.10;;;;;;;;;;6077748;23;20428;-74
2024/02/11 02:44:53;;;;;;;17.27;10.63;;;;;;;;;;6103952;23;20137;-74
2024/02/11 02:47:19;;;;;;;29.75;12.05;;;;;;;;;;6104074;23;20101;-73
2024/02/11 02:49:49;;;;;;;20.15;10.27;;;;;;;;;;6080891;23;20017;-73
2024/02/11 02:52:15;;;;;;;27.85;11.68;;;;;;;;;;6086492;23;20030;-74
2024/02/11 02:54:43;;;;;;;23.52;13.30;;;;;;;;;;6108460;23;20301;-73
2024/02/11 02:57:11;;;;;;;23.63;11.60;;;;;;;;;;6101900;23;20006;-75
2024/02/11 02:59:39;;;;;;;24.60;11.90;;;;;;;;;;6101066;23;20037;-75
2024/02/11 03:02:07;;;;;;;20.63;12.02;;;;;;;;;;6100593;23;20049;-73
2024/02/11 03:04:38;;;;;;;25.90;11.98;;;;;;;;;;6100249;23;20061;-74
2024/02/11 03:07:10;;;;;;;20.50;10.73;;;;;;;;;;6100546;23;20012;-74
2024/02/11 03:09:36;;;;;;;25.30;10.75;;;;;;;;;;6100799;23;20018;-74
2024/02/11 03:12:07;;;;;;;20.70;10.70;;;;;;;;;;6100572;23;20463;-74
2024/02/11 03:14:34;;;;;;;21.55;10.68;;;;;;;;;;6100957;23;20010;-74
2024/02/11 03:17:00;;;;;;;23.25;11.73;;;;;;;;;;6101845;23;20022;-73
2024/02/11 03:19:26;;;;;;;21.77;11.25;;;;;;;;;;6101339;23;20428;-75
2024/02/11 03:21:52;;;;;;;25.67;11.32;;;;;;;;;;6101303;23;20006;-73
2024/02/11 03:24:20;;;;;;;23.10;12.52;;;;;;;;;;6102232;23;20063;-73
2024/02/11 03:26:47;;;;;;;21.55;11.27;;;;;;;;;;6101092;23;20010;-74
2024/02/11 03:29:19;;;;;;;18.00;10.98;;;;;;;;;;6100765;23;20041;-75
2024/02/11 03:31:46;;;;;;;20.70;10.65;;;;;;;;;;6077136;23;20006;-74
2024/02/11 03:34:13;;;;;;;20.55;10.35;;;;;;;;;;6100214;23;20010;-73
2024/02/11 03:36:40;;;;;;;20.33;9.98;;;;;;;;;;6075623;23;20010;-74
2024/02/11 03:39:12;;;;;;;21.42;9.95;;;;;;;;;;6099976;23;20006;-73
2024/02/11 03:41:41;;;;;;;;;;;;;;;;;;6102517;23;20006;-74
2024/02/11 03:44:10;;;;;;;19.77;9.80;;;;;;;;;;6099912;23;19909;-74
2024/02/11 03:46:36;;;;;;;16.67;9.45;;;;;;;;;;6100414;23;20011;-73
2024/02/11 03:49:02;;;;;;;23.58;10.55;;;;;;;;;;6100573;23;20189;-75
2024/02/11 03:51:46;;;;;;;26.48;11.55;;;;;;;;;;6099306;23;20027;-73
2024/02/11 03:54:13;;;;;;;22.23;9.80;;;;;;;;;;6099470;23;20006;-74
2024/02/11 03:56:45;;;;;;;20.80;10.30;;;;;;;;;;6075546;23;20393;-75
2024/02/11 03:59:11;;;;;;;24.27;10.60;;;;;;;;;;6099983;23;19998;-74
2024/02/11 04:01:41;;;;;;;24.45;10.07;;;;;;;;;;6100706;23;20436;-75
2024/02/11 04:04:07;;;;;;;19.65;8.98;;;;;;;;;;6098870;23;20010;-73
2024/02/11 04:06:34;;;;;;;17.45;8.85;;;;;;;;;;6101713;23;20061;-75
2024/02/11 04:09:03;;;;;;;19.70;9.13;;;;;;;;;;6123131;23;20010;-75
2024/02/11 04:11:33;;;;;;;24.27;9.82;;;;;;;;;;6053131;23;20041;-73
2024/02/11 04:14:06;;;;;;;23.73;8.57;;;;;;;;;;6101080;23;20002;-74
2024/02/11 04:16:43;;;;;;;19.85;8.85;;;;;;;;;;6101289;23;20018;-74
2024/02/11 04:19:12;;;;;;;13.30;7.78;;;;;;;;;;6100310;23;20002;-73
2024/02/11 04:21:43;;;;;;;20.50;8.07;;;;;;;;;;6123846;23;20226;-74
2024/02/11 04:24:15;;;;;;;19.73;8.47;;;;;;;;;;6099760;23;20033;-73
2024/02/11 04:26:53;;;;;;;15.48;8.57;;;;;;;;;;6100340;23;20244;-76
2024/02/11 04:29:19;;;;;;;20.38;8.25;;;;;;;;;;6101131;23;20500;-75
2024/02/11 04:31:49;;;;;;;19.52;8.50;;;;;;;;;;6125206;23;20018;-76
2024/02/11 04:34:17;;;;;;;19.50;8.25;;;;;;;;;;6100984;23;20006;-76
2024/02/11 04:36:45;;;;;;;27.55;9.00;;;;;;;;;;6100783;23;20034;-74
2024/02/11 04:39:12;;;;;;;18.13;9.05;;;;;;;;;;6102027;23;20066;-74
2024/02/11 04:41:40;;;;;;;17.55;8.88;;;;;;;;;;6100681;23;20034;-74
2024/02/11 04:44:09;;;;;;;20.65;8.93;;;;;;;;;;6101109;23;20526;-74
2024/02/11 04:46:39;;;;;;;15.50;7.90;;;;;;;;;;6099274;23;20492;-73
2024/02/11 04:49:05;;;;;;;23.05;8.32;;;;;;;;;;6098918;23;20251;-75
2024/02/11 04:51:34;;;;;;;15.88;7.75;;;;;;;;;;6099127;23;20023;-74
2024/02/11 04:54:02;;;;;;;21.15;7.50;;;;;;;;;;6099729;23;20061;-73
2024/02/11 04:56:30;;;;;;;15.18;7.10;;;;;;;;;;6100472;23;20052;-74
2024/02/11 04:59:01;;;;;;;15.40;6.80;;;;;;;;;;6099106;23;20013;-75
2024/02/11 05:01:31;;;;;;;17.33;7.25;;;;;;;;;;6124481;23;20013;-74
2024/02/11 05:03:59;;;;;;;21.52;7.75;;;;;;;;;;6122818;23;20007;-74
2024/02/11 05:06:26;;;;;;;16.13;7.18;;;;;;;;;;6101263;23;20073;-74
2024/02/11 05:08:54;;;;;;;16.60;7.20;;;;;;;;;;6100987;23;20327;-74
2024/02/11 05:11:21;;;;;;;15.00;6.32;;;;;;;;;;6076660;23;20053;-74
2024/02/11 05:13:54;;;;;;;13.30;5.22;;;;;;;;;;6123844;23;20014;-75
2024/02/11 05:16:28;;;;;;;18.48;5.65;;;;;;;;;;6100025;23;20440;-74
2024/02/11 05:18:59;;;;;;;15.40;5.57;;;;;;;;;;6103106;23;19994;-75
2024/02/11 05:21:28;;;;;;;15.68;6.57;;;;;;;;;;6102511;23;20006;-75
2024/02/11 05:23:55;;;;;;;11.63;5.47;;;;;;;;;;6101333;23;20002;-75
2024/02/11 05:26:22;;;;;;;14.38;6.60;;;;;;;;;;6099945;23;20061;-75
2024/02/11 05:28:49;;;;;;;13.05;6.57;;;;;;;;;;6123990;23;20006;-73
2024/02/11 05:31:21;;;;;;;16.50;6.45;;;;;;;;;;6123938;23;20010;-74
2024/02/11 05:33:51;;;;;;;13.85;5.35;;;;;;;;;;6099190;23;20069;-72
2024/02/11 05:36:21;;;;;;;10.20;5.13;;;;;;;;;;6125150;23;20007;-74
2024/02/11 05:38:53;;;;;;;11.30;5.57;;;;;;;;;;6102836;23;20089;-75
2024/02/11 05:41:20;;;;;;;11.90;4.80;;;;;;;;;;6079800;23;20013;-75
2024/02/11 05:43:55;;;;;;;12.38;4.97;;;;;;;;;;6103571;23;20065;-73
2024/02/11 05:46:22;;;;;;;10.13;4.22;;;;;;;;;;6103839;23;20090;-73
2024/02/11 05:48:49;;;;;;;15.40;4.60;;;;;;;;;;6102801;23;20010;-75
2024/02/11 05:51:18;;;;;;;20.63;5.38;;;;;;;;;;6102112;23;20038;-75
2024/02/11 05:53:47;;;;;;;13.18;5.45;;;;;;;;;;6077927;23;20471;-74
2024/02/11 05:56:13;;;;;;;11.15;5.32;;;;;;;;;;6103394;23;20006;-74
2024/02/11 05:58:45;;;;;;;18.30;5.85;;;;;;;;;;6103010;23;20033;-71
2024/02/11 06:01:13;;;;;;;15.75;5.25;;;;;;;;;;6101696;23;20014;-72
2024/02/11 06:03:40;;;;;;;9.70;4.97;;;;;;;;;;6101646;23;20013;-74
2024/02/11 06:06:07;;;;;;;13.50;7.00;;;;;;;;;;6077442;23;20037;-73
2024/02/11 06:08:36;;;;;;;18.55;7.10;;;;;;;;;;6103181;23;20427;-75
2024/02/11 06:11:03;;;;;;;13.10;5.28;;;;;;;;;;6102672;23;20002;-75
2024/02/11 06:13:33;;;;;;;10.18;4.47;;;;;;;;;;6100980;23;20014;-75
2024/02/11 06:16:00;;;;;;;11.32;6.03;;;;;;;;;;6100688;23;20439;-74
2024/02/11 06:18:29;;;;;;;22.08;11.23;;;;;;;;;;6103230;23;20034;-76
2024/02/11 06:20:57;;;;;;;17.58;8.25;;;;;;;;;;6101121;23;20405;-75
2024/02/11 06:23:25;;;;;;;14.32;7.30;;;;;;;;;;6102242;23;20474;-74
2024/02/11 06:26:02;;;;;;;12.45;5.68;;;;;;;;;;6100624;23;20021;-72
2024/02/11 06:28:34;;;;;;;15.88;6.05;;;;;;;;;;6101438;23;20038;-76
2024/02/11 06:31:02;;;;;;;11.02;4.70;;;;;;;;;;6098656;23;20101;-74
2024/02/11 06:33:28;;;;;;;13.15;5.95;;;;;;;;;;6105181;23;20006;-74
2024/02/11 06:35:56;;;;;;;17.42;6.18;;;;;;;;;;6103802;23;20006;-73
2024/02/11 06:38:23;;;;;;;14.75;5.63;;;;;;;;;;6105130;23;20066;-76
2024/02/11 06:40:49;;;;;;;17.17;6.40;;;;;;;;;;6104052;23;20042;-73
2024/02/11 06:43:24;;;;;;;20.15;7.88;;;;;;;;;;6103313;23;20041;-74
2024/02/11 06:45:50;;;;;;;25.45;9.15;;;;;;;;;;6077265;23;20015;-72
2024/02/11 06:48:20;;;;;;;21.73;10.82;;;;;;;;;;6102506;23;20006;-75
2024/02/11 06:50:45;;;;;;;27.33;13.35;;;;;;;;;;6103683;23;20030;-74
2024/02/11 06:53:14;;;;;;;29.70;12.27;;;;;;;;;;6105235;23;20068;-77
2024/02/11 06:55:40;;;;;;;24.23;13.27;;;;;;;;;;6108795;23;20013;-74
2024/02/11 06:58:07;;;;;;;31.10;14.63;;;;;;;;;;6105992;23;20018;-74
2024/02/11 07:00:33;;;;;;;30.70;16.42;;;;;;;;;;6107948;23;20020;-73
2024/02/11 07:03:03;;;;;;;31.30;15.40;;;;;;;;;;6108241;23;20010;-72
2024/02/11 07:05:30;;;;;;;25.80;14.32;;;;;;;;;;6107813;23;19998;-75
2024/02/11 07:07:59;;;;;;;24.05;15.02;;;;;;;;;;6105761;23;20014;-75
2024/02/11 07:10:28;;;;;;;38.97;17.17;;;;;;;;;;6081643;23;20554;-74
2024/02/11 07:12:55;;;;;;;33.03;17.38;;;;;;;;;;6102779;23;20057;-75
2024/02/11 07:15:21;;;;;;;35.00;18.55;;;;;;;;;;6098019;23;20002;-77
2024/02/11 07:17:47;;;;;;;28.67;16.35;;;;;;;;;;6096507;23;20010;-75
2024/02/11 07:20:14;;;;;;;38.20;18.42;;;;;;;;;;6095807;23;20317;-73
2024/02/11 07:22:43;;;;;;;41.50;18.70;;;;;;;;;;6098873;23;20015;-75
2024/02/11 07:25:09;;;;;;;36.50;18.20;;;;;;;;;;6094985;23;20007;-73
2024/02/11 07:27:35;;;;;;;33.95;18.17;;;;;;;;;;6094480;23;20006;-74
2024/02/11 07:30:02;;;;;;;36.08;17.85;;;;;;;;;;6094471;23;20028;-75
2024/02/11 07:32:28;;;;;;;34.95;18.30;;;;;;;;;;6094016;23;20033;-75
2024/02/11 07:34:56;;;;;;;37.47;19.08;;;;;;;;;;6092292;23;20423;-75
2024/02/11 07:37:22;;;;;;;37.08;18.02;;;;;;;;;;6092572;23;20010;-75
2024/02/11 07:39:49;;;;;;;37.97;19.10;;;;;;;;;;6093332;23;20085;-74
2024/02/11 07:42:15;;;;;;;38.05;18.30;;;;;;;;;;6094647;23;20009;-74
2024/02/11 07:44:40;;;;;;;36.95;17.33;;;;;;;;;;6093626;23;20077;-76
2024/02/11 07:47:07;;;;;;;29.85;17.60;;;;;;;;;;6091773;23;20122;-75
2024/02/11 07:49:44;;;;;;;37.72;19.15;;;;;;;;;;6093596;23;20034;-75
2024/02/11 07:52:10;;;;;;;35.53;18.33;;;;;;;;;;6092702;23;20018;-75
2024/02/11 07:54:36;;;;;;;38.95;19.23;;;;;;;;;;6093354;23;20022;-75
2024/02/11 07:57:02;;;;;;;32.40;17.52;;;;;;;;;;6092484;23;20032;-73
2024/02/11 07:59:27;;;;;;;35.42;17.90;;;;;;;;;;6092205;23;20065;-74
2024/02/11 08:01:55;;;;;;;33.83;17.63;;;;;;;;;;6095060;23;20033;-74
2024/02/11 08:04:21;;;;;;;33.83;17.35;;;;;;;;;;6095513;23;20002;-76
2024/02/11 08:06:47;;;;;;;43.35;19.73;;;;;;;;;;6095218;23;20439;-75
2024/02/11 08:09:12;;;;;;;47.03;23.88;;;;;;;;;;6093082;23;20034;-77
2024/02/11 08:11:40;;;;;;;31.08;17.55;;;;;;;;;;6094808;23;20124;-76
2024/02/11 08:14:07;;;;;;;31.63;16.15;;;;;;;;;;6069630;23;20479;-75
2024/02/11 08:16:32;;;;;;;40.95;19.08;;;;;;;;;;6093416;23;20059;-76
2024/02/11 08:18:59;;;;;;;33.72;18.25;;;;;;;;;;6097326;23;20007;-70
2024/02/11 08:21:25;;;;;;;35.53;18.70;;;;;;;;;;6070572;23;20010;-74
2024/02/11 08:23:51;;;;;;;37.55;16.98;;;;;;;;;;6092498;23;20089;-75
2024/02/11 08:26:17;;;;;;;37.72;18.60;;;;;;;;;;6091378;23;20034;-76
2024/02/11 08:28:44;;;;;;;34.83;18.73;;;;;;;;;;6093694;23;20077;-74
2024/02/11 08:31:11;;;;;;;37.78;20.05;;;;;;;;;;6091804;23;20440;-76
2024/02/11 08:33:37;;;;;;;41.47;19.55;;;;;;;;;;6091892;23;20010;-74
2024/02/11 08:36:02;;;;;;;35.92;19.08;;;;;;;;;;6091286;23;20097;-75
2024/02/11 08:38:28;;;;;;;42.33;20.83;;;;;;;;;;6093336;23;20098;-74
2024/02/11 08:40:54;;;;;;;34.25;17.48;;;;;;;;;;6092491;23;20101;-75
2024/02/11 08:43:20;;;;;;;38.88;20.42;;;;;;;;;;6091317;23;20014;-75
2024/02/11 08:45:45;;;;;;;39.42;19.60;;;;;;;;;;6091469;23;20010;-74
2024/02/11 08:48:12;;;;;;;37.33;19.20;;;;;;;;;;6093066;23;20002;-75
2024/02/11 08:50:38;;;;;;;40.28;19.13;;;;;;;;;;6093458;23;20109;-76
2024/02/11 08:53:05;;;;;;;53.80;20.38;;;;;;;;;;6093542;23;20755;-76
2024/02/11 08:55:30;;;;;;;50.97;25.45;;;;;;;;;;6093224;23;20010;-77
2024/02/11 08:57:59;;;;;;;36.95;17.55;;;;;;;;;;6067984;23;20010;-75
2024/02/11 09:00:26;;;;;;;41.67;17.98;;;;;;;;;;6093731;23;20008;-76
2024/02/11 09:02:52;;;;;;;32.45;17.30;;;;;;;;;;6091724;23;20097;-75
2024/02/11 09:05:18;;;;;;;33.30;17.88;;;;;;;;;;6091800;23;20030;-75
2024/02/11 09:07:43;;;;;;;34.80;18.60;;;;;;;;;;6067085;23;20016;-74
2024/02/11 09:10:09;;;;;;;34.90;17.08;;;;;;;;;;6093028;23;20500;-74
2024/02/11 09:12:35;;;;;;;31.48;15.68;;;;;;;;;;6068956;23;20061;-75
2024/02/11 09:15:02;;;;;;;25.50;15.93;;;;;;;;;;6093450;23;20086;-74
2024/02/11 09:17:32;;;;;;;34.65;17.15;;;;;;;;;;6095245;23;20009;-77
2024/02/11 09:19:58;;;;;;;28.17;15.45;;;;;;;;;;6094838;23;20002;-75
2024/02/11 09:22:24;;;;;;;33.38;16.08;;;;;;;;;;6070049;23;20089;-74
2024/02/11 09:24:51;;;;;;;36.25;16.92;;;;;;;;;;6070667;23;20010;-74
2024/02/11 09:27:17;;;;;;;36.80;16.00;;;;;;;;;;6069880;23;20325;-73
2024/02/11 09:29:45;;;;;;;31.50;15.48;;;;;;;;;;6068545;23;20012;-75
2024/02/11 09:32:10;;;;;;;30.50;16.38;;;;;;;;;;6094309;23;20083;-74
2024/02/11 09:34:36;;;;;;;28.75;15.07;;;;;;;;;;6069305;23;20018;-75
2024/02/11 09:37:03;;;;;;;27.48;15.35;;;;;;;;;;6093171;23;20013;-77
2024/02/11 09:39:28;;;;;;;23.60;13.52;;;;;;;;;;6069787;23;20002;-73
2024/02/11 09:41:54;;;;;;;28.17;15.88;;;;;;;;;;6094296;23;20009;-76
2024/02/11 09:44:22;;;;;;;28.40;14.43;;;;;;;;;;6093078;23;20015;-74
2024/02/11 09:46:51;;;;;;;27.38;14.73;;;;;;;;;;6094945;23;20029;-76
2024/02/11 09:49:19;;;;;;;25.42;14.40;;;;;;;;;;6068517;23;20021;-74
2024/02/11 09:51:48;;;;;;;25.13;13.68;;;;;;;;;;6059028;23;20026;-74
2024/02/11 09:54:15;;;;;;;25.13;14.18;;;;;;;;;;6092190;23;20033;-76
2024/02/11 09:56:42;;;;;;;27.38;13.80;;;;;;;;;;6094116;23;20011;-77
2024/02/11 09:59:09;;;;;;;26.92;15.13;;;;;;;;;;6094605;23;20073;-74
2024/02/11 10:01:37;;;;;;;25.55;14.82;;;;;;;;;;6094281;23;20335;-75
2024/02/11 10:04:06;;;;;;;33.97;16.48;;;;;;;;;;6094243;23;20006;-74
2024/02/11 10:06:38;;;;;;;27.83;14.65;;;;;;;;;;6092154;23;20010;-72
2024/02/11 10:09:05;;;;;;;25.67;13.65;;;;;;;;;;6092292;23;20015;-73
2024/02/11 10:11:31;;;;;;;25.00;14.10;;;;;;;;;;6068385;23;20018;-75
2024/02/11 10:13:59;;;;;;;29.88;14.32;;;;;;;;;;6092514;23;20014;-76
2024/02/11 10:16:28;;;;;;;26.25;13.90;;;;;;;;;;6098085;23;20053;-74
2024/02/11 10:18:55;;;;;;;27.92;14.35;;;;;;;;;;6074411;23;20085;-76
2024/02/11 10:21:20;;;;;;;24.73;13.38;;;;;;;;;;6091783;23;20073;-74
2024/02/11 10:23:46;;;;;;;43.47;21.50;;;;;;;;;;6091693;23;20010;-75
2024/02/11 10:26:12;;;;;;;27.73;13.75;;;;;;;;;;6093735;23;20405;-73
2024/02/11 10:28:39;;;;;;;27.98;13.70;;;;;;;;;;6068696;23;20021;-74
2024/02/11 10:31:07;;;;;;;29.25;15.07;;;;;;;;;;6093017;23;20409;-74
2024/02/11 10:33:33;;;;;;;27.52;14.63;;;;;;;;;;6094486;23;20006;-76
2024/02/11 10:36:03;;;;;;;25.20;13.38;;;;;;;;;;6092355;23;20032;-77
2024/02/11 10:38:32;;;;;;;21.95;12.75;;;;;;;;;;6091920;23;20413;-74
2024/02/11 10:41:00;;;;;;;26.90;13.77;;;;;;;;;;6093938;23;20017;-74
2024/02/11 10:43:26;;;;;;;26.05;13.70;;;;;;;;;;6093656;23;20006;-74
2024/02/11 10:45:54;;;;;;;29.40;14.80;;;;;;;;;;6093913;23;20006;-74
2024/02/11 10:48:21;;;;;;;28.52;14.65;;;;;;;;;;6091910;23;20010;-74
2024/02/11 10:50:56;;;;;;;29.13;13.60;;;;;;;;;;6091570;23;20022;-76
2024/02/11 10:53:23;;;;;;;25.75;14.13;;;;;;;;;;6091899;23;20027;-76
2024/02/11 10:55:50;;;;;;;29.00;15.38;;;;;;;;;;6091908;23;20006;-75
2024/02/11 10:58:18;;;;;;;23.40;13.15;;;;;;;;;;6093802;23;20006;-76
2024/02/11 11:00:49;;;;;;;27.25;14.68;;;;;;;;;;6094704;23;20030;-72
2024/02/11 11:03:17;;;;;;;27.77;14.02;;;;;;;;;;6092366;23;20065;-75
2024/02/11 11:05:44;;;;;;;27.02;14.68;;;;;;;;;;6092330;23;20017;-74
2024/02/11 11:08:12;;;;;;;31.27;16.98;;;;;;;;;;6093356;23;20083;-77
2024/02/11 11:10:38;;;;;;;28.42;15.20;;;;;;;;;;6092306;23;20013;-73
2024/02/11 11:13:04;;;;;;;24.42;14.50;;;;;;;;;;6096998;23;20003;-75
2024/02/11 11:15:37;;;;;;;34.33;16.90;;;;;;;;;;6109813;23;20068;-72
2024/02/11 11:18:03;;;;;;;27.48;16.40;;;;;;;;;;6108884;23;20013;-74
2024/02/11 11:20:52;;;;;;;34.88;17.10;;;;;;;;;;6093706;23;20041;-74
2024/02/11 11:23:27;;;;;;;33.65;16.83;;;;;;;;;;6093074;23;20010;-75
2024/02/11 11:25:56;;;;;;;30.45;15.65;;;;;;;;;;6092880;23;20002;-76
2024/02/11 11:28:30;;;;;;;32.70;16.90;;;;;;;;;;6095092;23;20010;-77
2024/02/11 11:30:57;;;;;;;29.30;17.30;;;;;;;;;;6095391;23;20018;-76
2024/02/11 11:33:23;;;;;;;28.13;16.20;;;;;;;;;;6094876;23;20002;-76
2024/02/11 11:35:59;;;;;;;30.52;16.55;;;;;;;;;;6095002;23;20049;-75
2024/02/11 11:38:26;;;;;;;31.52;15.68;;;;;;;;;;6070640;23;20443;-75
2024/02/11 11:40:56;;;;;;;23.25;14.20;;;;;;;;;;6096194;23;20403;-76
2024/02/11 11:43:24;;;;;;;23.45;13.40;;;;;;;;;;6094480;23;20007;-76
2024/02/11 11:45:56;;;;;;;26.23;14.95;;;;;;;;;;6091646;23;20017;-73
2024/02/11 11:48:26;;;;;;;22.30;14.30;;;;;;;;;;6091241;23;20006;-74
2024/02/11 11:50:58;;;;;;;26.58;14.65;;;;;;;;;;6090858;23;20010;-75
2024/02/11 11:53:25;;;;;;;24.25;13.63;;;;;;;;;;6091682;23;20093;-77
2024/02/11 11:55:56;;;;;;;26.60;14.23;;;;;;;;;;6091899;23;20033;-74
2024/02/11 11:58:27;;;;;;;24.83;13.80;;;;;;;;;;6093439;23;20033;-74
2024/02/11 12:01:06;;;;;;;24.15;13.07;;;;;;;;;;6067899;23;20404;-73
2024/02/11 12:03:33;;;;;;;26.95;14.10;;;;;;;;;;6091714;23;20010;-76
2024/02/11 12:06:00;;;;;;;32.47;18.60;;;;;;;;;;6092297;23;20257;-74
2024/02/11 12:08:26;;;;;;;31.70;15.00;;;;;;;;;;6091313;23;20118;-74
2024/02/11 12:11:00;;;;;;;27.88;14.57;;;;;;;;;;6093298;23;20296;-76
2024/02/11 12:13:30;;;;;;;28.45;13.73;;;;;;;;;;6091358;23;20034;-74
2024/02/11 12:15:57;;;;;;;25.92;14.40;;;;;;;;;;6091868;23;20007;-76
2024/02/11 12:18:25;;;;;;;25.67;13.10;;;;;;;;;;6091609;23;20014;-77
2024/02/11 12:20:51;;;;;;;28.42;13.18;;;;;;;;;;6093646;23;20006;-73
2024/02/11 12:23:19;;;;;;;23.98;14.52;;;;;;;;;;6091285;23;20424;-75
2024/02/11 12:25:51;;;;;;;27.55;14.55;;;;;;;;;;6091574;23;20305;-75
2024/02/11 12:28:27;;;;;;;27.85;14.02;;;;;;;;;;6091376;23;20033;-75
2024/02/11 12:31:11;;;;;;;27.00;14.30;;;;;;;;;;6091362;23;20014;-75
2024/02/11 12:33:42;;;;;;;26.73;13.55;;;;;;;;;;6093726;23;20317;-76
2024/02/11 12:36:12;;;;;;;26.92;13.43;;;;;;;;;;6091675;23;20467;-75
2024/02/11 12:38:40;;;;;;;25.33;14.25;;;;;;;;;;6091669;23;20017;-76
2024/02/11 12:41:08;;;;;;;26.15;14.68;;;;;;;;;;6068775;23;20022;-76
2024/02/11 12:43:34;;;;;;;22.15;12.85;;;;;;;;;;6092817;23;20400;-73
2024/02/11 12:46:01;;;;;;;23.15;12.55;;;;;;;;;;6091423;23;20030;-74
2024/02/11 12:48:27;;;;;;;23.42;12.00;;;;;;;;;;6070036;23;20440;-75
2024/02/11 12:50:53;;;;;;;22.25;12.10;;;;;;;;;;6095377;23;20198;-75
2024/02/11 12:53:20;;;;;;;21.67;12.60;;;;;;;;;;6095075;23;20016;-77
2024/02/11 12:55:47;;;;;;;24.48;13.38;;;;;;;;;;6069671;23;20015;-76
2024/02/11 12:58:12;;;;;;;24.35;13.68;;;;;;;;;;6095391;23;20081;-75
2024/02/11 13:00:39;;;;;;;24.73;13.77;;;;;;;;;;6095860;23;20084;-76
2024/02/11 13:03:07;;;;;;;27.42;13.32;;;;;;;;;;6073700;23;20003;-75
2024/02/11 13:05:32;;;;;;;31.13;14.45;;;;;;;;;;6050019;23;20037;-75
2024/02/11 13:07:58;;;;;;;28.98;14.50;;;;;;;;;;6071287;23;20363;-74
2024/02/11 13:10:24;;;;;;;28.65;14.68;;;;;;;;;;6070399;23;20134;-78
2024/02/11 13:12:52;;;;;;;23.77;13.20;;;;;;;;;;6096361;23;20002;-75
2024/02/11 13:15:18;;;;;;;24.40;13.25;;;;;;;;;;6096359;23;20129;-76
2024/02/11 13:17:44;;;;;;;27.15;13.80;;;;;;;;;;6071810;23;20428;-75
2024/02/11 13:20:13;;;;;;;29.08;13.00;;;;;;;;;;6097644;23;20129;-75
2024/02/11 13:22:39;;;;;;;25.48;14.18;;;;;;;;;;6069899;23;20006;-75
2024/02/11 13:25:08;;;;;;;28.98;14.07;;;;;;;;;;6095567;23;20002;-74
2024/02/11 13:27:34;;;;;;;30.02;15.48;;;;;;;;;;6095654;23;20030;-75
2024/02/11 13:30:00;;;;;;;27.90;14.23;;;;;;;;;;6096685;23;20085;-76
2024/02/11 13:32:25;;;;;;;31.40;14.80;;;;;;;;;;6097660;23;20002;-76
2024/02/11 13:34:52;;;;;;;27.27;14.13;;;;;;;;;;6097593;23;20006;-73
2024/02/11 13:37:19;;;;;;;26.40;14.00;;;;;;;;;;6096294;23;20014;-78
2024/02/11 13:39:46;;;;;;;28.13;14.77;;;;;;;;;;6096909;23;20046;-75
2024/02/11 13:42:12;;;;;;;32.17;16.02;;;;;;;;;;6098090;23;20003;-77
2024/02/11 13:44:38;;;;;;;27.42;14.63;;;;;;;;;;6071230;23;20025;-75
2024/02/11 13:47:06;;;;;;;28.98;14.77;;;;;;;;;;6097425;23;20003;-75
2024/02/11 13:49:35;;;;;;;26.45;14.20;;;;;;;;;;6096911;23;20002;-74
2024/02/11 13:52:01;;;;;;;28.17;15.05;;;;;;;;;;6088589;23;20117;-75
2024/02/11 13:54:28;;;;;;;27.23;14.35;;;;;;;;;;6096687;23;20006;-75
2024/02/11 13:56:53;;;;;;;26.73;14.38;;;;;;;;;;6095407;23;20010;-77
2024/02/11 13:59:20;;;;;;;28.17;14.07;;;;;;;;;;6096956;23;20081;-75
2024/02/11 14:01:51;;;;;;;26.15;14.10;;;;;;;;;;6097297;23;20018;-75
2024/02/11 14:04:18;;;;;;;27.42;14.10;;;;;;;;;;6095855;23;20006;-76
2024/02/11 14:06:45;;;;;;;21.35;11.85;;;;;;;;;;6096657;23;20380;-77
2024/02/11 14:09:11;;;;;;;26.75;11.95;;;;;;;;;;6095136;23;20033;-75
2024/02/11 14:11:40;;;;;;;25.20;12.63;;;;;;;;;;6093458;23;20328;-75
2024/02/11 14:14:09;;;;;;;16.77;8.57;;;;;;;;;;6095310;23;20014;-77
2024/02/11 14:16:38;;;;;;;18.77;11.60;;;;;;;;;;6095301;23;20077;-76
2024/02/11 14:19:12;;;;;;;12.75;8.30;;;;;;;;;;6094073;23;20016;-75
2024/02/11 14:21:44;;;;;;;7.68;4.03;;;;;;;;;;6118625;23;20003;-77
2024/02/11 14:24:10;;;;;;;2.67;2.28;;;;;;;;;;6093413;23;20021;-76
2024/02/11 14:26:36;;;;;;;3.65;1.67;;;;;;;;;;6094735;23;20010;-77